createdAt,value
2023-05-19T00:00:30.998Z,99213.75
2023-05-19T00:02:57.968Z,99208.84
2023-05-19T00:05:24.915Z,99207.97
2023-05-19T00:07:51.998Z,99213.56
2023-05-19T00:10:18.771Z,99209.03
2023-05-19T00:12:45.440Z,99211.47
2023-05-19T00:15:12.550Z,99208.47
2023-05-19T00:17:42.353Z,99203.81
2023-05-19T00:20:09.232Z,99202.56
2023-05-19T00:22:37.041Z,99199.06
2023-05-19T00:25:04.064Z,99203.38
2023-05-19T00:27:30.668Z,99207.22
2023-05-19T00:29:57.181Z,99202.38
2023-05-19T00:32:23.831Z,99197.91
2023-05-19T00:34:50.426Z,99192.28
2023-05-19T00:37:16.947Z,99194.44
2023-05-19T00:39:43.491Z,99194.88
2023-05-19T00:42:10.217Z,99189.84
2023-05-19T00:44:40.563Z,99185.97
2023-05-19T00:47:07.059Z,99193.91
2023-05-19T00:49:33.676Z,99188.91
2023-05-19T00:52:01.279Z,99187.97
2023-05-19T00:54:28.422Z,99183.38
2023-05-19T00:56:55.344Z,99184.34
2023-05-19T00:59:21.846Z,99191.50
2023-05-19T01:01:49.131Z,99184.03
2023-05-19T01:04:20.064Z,99185.69
2023-05-19T01:06:54.786Z,99191.94
2023-05-19T01:09:22.610Z,99189.72
2023-05-19T01:11:50.222Z,99185.13
2023-05-19T01:14:16.819Z,99183.81
2023-05-19T01:17:08.822Z,99178.28
2023-05-19T01:20:02.205Z,99177.94
2023-05-19T01:22:32.399Z,99184.78
2023-05-19T01:25:27.311Z,99181.44
2023-05-19T01:28:27.903Z,99177.94
2023-05-19T01:30:55.576Z,99182.41
2023-05-19T01:33:22.808Z,99175.50
2023-05-19T01:35:49.368Z,99184.63
2023-05-19T01:38:17.477Z,99188.91
2023-05-19T01:40:44.068Z,99187.09
2023-05-19T01:43:13.199Z,99185.47
2023-05-19T01:45:39.800Z,99185.81
2023-05-19T01:48:08.421Z,99184.94
2023-05-19T01:50:36.421Z,99189.38
2023-05-19T01:53:03.297Z,99196.34
2023-05-19T01:55:29.802Z,99194.63
2023-05-19T01:57:59.160Z,99190.38
2023-05-19T02:00:31.875Z,99191.94
2023-05-19T02:03:22.616Z,99199.47
2023-05-19T02:06:11.962Z,99191.34
2023-05-19T02:09:03.833Z,99191.50
2023-05-19T02:12:01.146Z,99189.69
2023-05-19T02:15:04.467Z,99190.94
2023-05-19T02:17:33.129Z,99189.41
2023-05-19T02:19:59.770Z,99181.66
2023-05-19T02:22:26.288Z,99184.50
2023-05-19T02:24:52.816Z,99176.81
2023-05-19T02:27:19.367Z,99185.44
2023-05-19T02:29:46.027Z,99175.84
2023-05-19T02:32:12.665Z,99170.63
2023-05-19T02:34:39.288Z,99169.31
2023-05-19T02:37:07.564Z,99168.38
2023-05-19T02:39:35.292Z,99169.00
2023-05-19T02:42:01.903Z,99166.34
2023-05-19T02:44:28.418Z,99169.41
2023-05-19T02:46:55.077Z,99168.88
2023-05-19T02:49:21.608Z,99161.81
2023-05-19T02:51:48.141Z,99164.19
2023-05-19T02:54:14.681Z,99154.41
2023-05-19T02:56:41.190Z,99161.81
2023-05-19T02:59:08.734Z,99153.34
2023-05-19T03:01:35.284Z,99154.56
2023-05-19T03:04:02.187Z,99153.25
2023-05-19T03:06:29.391Z,99150.63
2023-05-19T03:08:55.914Z,99153.78
2023-05-19T03:11:23.281Z,99164.63
2023-05-19T03:13:49.822Z,99151.31
2023-05-19T03:16:16.382Z,99156.22
2023-05-19T03:18:42.931Z,99164.09
2023-05-19T03:21:09.718Z,99151.94
2023-05-19T03:23:36.303Z,99160.66
2023-05-19T03:26:03.055Z,99157.56
2023-05-19T03:28:29.826Z,99152.88
2023-05-19T03:30:56.341Z,99157.88
2023-05-19T03:33:23.950Z,99154.94
2023-05-19T03:35:50.621Z,99157.78
2023-05-19T03:38:17.151Z,99159.81
2023-05-19T03:40:45.021Z,99155.72
2023-05-19T03:43:11.557Z,99157.97
2023-05-19T03:45:38.139Z,99150.75
2023-05-19T03:48:04.998Z,99159.59
2023-05-19T03:50:31.745Z,99157.59
2023-05-19T03:52:58.553Z,99152.56
2023-05-19T03:55:25.713Z,99160.72
2023-05-19T03:57:55.105Z,99153.06
2023-05-19T04:00:21.617Z,99164.19
2023-05-19T04:02:48.264Z,99164.72
2023-05-19T04:05:14.913Z,99161.44
2023-05-19T04:07:41.651Z,99159.91
2023-05-19T04:10:08.314Z,99166.25
2023-05-19T04:12:34.853Z,99171.34
2023-05-19T04:15:01.410Z,99168.69
2023-05-19T04:17:28.026Z,99178.41
2023-05-19T04:19:54.622Z,99171.84
2023-05-19T04:22:21.410Z,99172.97
2023-05-19T04:24:48.671Z,99169.81
2023-05-19T04:27:16.086Z,99175.94
2023-05-19T04:29:42.608Z,99174.09
2023-05-19T04:32:09.198Z,99170.16
2023-05-19T04:34:35.838Z,99173.41
2023-05-19T04:37:02.556Z,99176.75
2023-05-19T04:39:29.198Z,99174.16
2023-05-19T04:41:56.597Z,99179.88
2023-05-19T04:44:23.152Z,99170.59
2023-05-19T04:46:50.153Z,99171.31
2023-05-19T04:49:19.171Z,99183.63
2023-05-19T04:51:46.126Z,99176.34
2023-05-19T04:54:12.644Z,99172.56
2023-05-19T04:56:39.152Z,99174.03
2023-05-19T04:59:06.837Z,99171.28
2023-05-19T05:01:40.228Z,99179.56
2023-05-19T05:04:07.097Z,99180.88
2023-05-19T05:06:33.673Z,99179.03
2023-05-19T05:09:00.390Z,99182.31
2023-05-19T05:11:27.079Z,99179.53
2023-05-19T05:13:53.758Z,99182.06
2023-05-19T05:16:20.633Z,99183.63
2023-05-19T05:18:47.323Z,99168.50
2023-05-19T05:21:14.052Z,99167.53
2023-05-19T05:23:40.730Z,99170.94
2023-05-19T05:26:10.797Z,99167.53
2023-05-19T05:28:37.305Z,99166.69
2023-05-19T05:31:03.968Z,99169.78
2023-05-19T05:33:30.581Z,99163.59
2023-05-19T05:35:57.122Z,99168.97
2023-05-19T05:38:23.864Z,99167.97
2023-05-19T05:40:50.655Z,99172.81
2023-05-19T05:43:17.170Z,99172.22
2023-05-19T05:45:43.704Z,99175.69
2023-05-19T05:48:10.807Z,99179.75
2023-05-19T05:50:37.645Z,99182.19
2023-05-19T05:53:04.333Z,99177.31
2023-05-19T05:55:31.368Z,99175.16
2023-05-19T05:57:58.675Z,99175.19
2023-05-19T06:00:27.906Z,99183.22
2023-05-19T06:02:54.592Z,99179.47
2023-05-19T06:05:21.296Z,99179.44
2023-05-19T06:07:47.845Z,99172.16
2023-05-19T06:10:14.956Z,99180.66
2023-05-19T06:12:43.203Z,99179.88
2023-05-19T06:15:10.098Z,99181.41
2023-05-19T06:17:36.692Z,99187.66
2023-05-19T06:20:04.755Z,99191.63
2023-05-19T06:22:31.332Z,99183.81
2023-05-19T06:24:57.874Z,99181.38
2023-05-19T06:27:24.412Z,99183.81
2023-05-19T06:29:51.003Z,99187.06
2023-05-19T06:32:17.537Z,99190.31
2023-05-19T06:34:44.036Z,99180.09
2023-05-19T06:37:11.144Z,99194.03
2023-05-19T06:39:38.041Z,99181.75
2023-05-19T06:42:04.851Z,99175.91
2023-05-19T06:44:31.365Z,99189.50
2023-05-19T06:46:58.043Z,99186.13
2023-05-19T06:49:24.624Z,99183.34
2023-05-19T06:51:51.143Z,99193.25
2023-05-19T06:54:17.661Z,99187.88
2023-05-19T06:56:45.009Z,99180.34
2023-05-19T06:59:11.531Z,99188.00
2023-05-19T07:01:38.751Z,99186.09
2023-05-19T07:04:05.610Z,99181.84
2023-05-19T07:06:32.247Z,99181.72
2023-05-19T07:08:58.771Z,99181.47
2023-05-19T07:11:26.466Z,99175.97
2023-05-19T07:13:53.049Z,99184.63
2023-05-19T07:16:19.586Z,99182.06
2023-05-19T07:18:46.173Z,99176.09
2023-05-19T07:21:13.012Z,99178.13
2023-05-19T07:23:40.097Z,99171.13
2023-05-19T07:26:12.979Z,99170.41
2023-05-19T07:28:41.738Z,99166.09
2023-05-19T07:31:13.525Z,99160.75
2023-05-19T07:33:41.424Z,99164.34
2023-05-19T07:36:11.084Z,99164.25
2023-05-19T07:38:38.382Z,99155.44
2023-05-19T07:41:06.536Z,99166.78
2023-05-19T07:43:33.133Z,99160.88
2023-05-19T07:46:00.709Z,99161.69
2023-05-19T07:48:27.334Z,99166.84
2023-05-19T07:50:54.079Z,99163.69
2023-05-19T07:53:20.771Z,99170.72
2023-05-19T07:55:47.277Z,99171.31
2023-05-19T07:58:13.782Z,99172.06
2023-05-19T08:00:42.958Z,99164.41
2023-05-19T08:03:10.308Z,99156.94
2023-05-19T08:05:36.986Z,99162.31
2023-05-19T08:08:03.646Z,99164.97
2023-05-19T08:10:30.464Z,99162.31
2023-05-19T08:12:57.008Z,99157.75
2023-05-19T08:15:23.568Z,99159.69
2023-05-19T08:17:50.107Z,99161.25
2023-05-19T08:20:16.682Z,99165.28
2023-05-19T08:22:43.219Z,99165.97
2023-05-19T08:25:10.396Z,99166.75
2023-05-19T08:27:36.941Z,99153.53
2023-05-19T08:30:03.504Z,99156.44
2023-05-19T08:32:30.054Z,99149.53
2023-05-19T08:34:56.596Z,99155.56
2023-05-19T08:37:23.138Z,99160.66
2023-05-19T08:39:50.111Z,99152.63
2023-05-19T08:42:16.665Z,99156.91
2023-05-19T08:44:43.996Z,99152.44
2023-05-19T08:47:13.874Z,99141.22
2023-05-19T08:49:46.481Z,99148.97
2023-05-19T08:52:23.351Z,99133.84
2023-05-19T08:54:53.169Z,99140.16
2023-05-19T08:57:19.699Z,99133.16
2023-05-19T08:59:46.252Z,99123.91
2023-05-19T09:02:13.381Z,99135.72
2023-05-19T09:04:40.176Z,99130.97
2023-05-19T09:07:06.796Z,99124.03
2023-05-19T09:09:33.329Z,99133.94
2023-05-19T09:11:59.886Z,99132.41
2023-05-19T09:14:26.402Z,99131.09
2023-05-19T09:16:53.302Z,99135.41
2023-05-19T09:19:21.277Z,99137.16
2023-05-19T09:21:57.913Z,99122.56
2023-05-19T09:24:25.351Z,99119.19
2023-05-19T09:26:51.865Z,99110.16
2023-05-19T09:29:18.456Z,99111.78
2023-05-19T09:32:06.176Z,99120.84
2023-05-19T09:34:32.746Z,99115.53
2023-05-19T09:36:59.935Z,99109.78
2023-05-19T09:39:26.653Z,99115.91
2023-05-19T09:41:53.873Z,99115.34
2023-05-19T09:44:20.241Z,99108.97
2023-05-19T09:46:53.230Z,99118.94
2023-05-19T09:49:24.060Z,99110.22
2023-05-19T09:51:53.425Z,99109.19
2023-05-19T09:54:20.561Z,99108.22
2023-05-19T09:57:00.510Z,99105.16
2023-05-19T09:59:28.461Z,99101.66
2023-05-19T10:01:59.779Z,99109.59
2023-05-19T10:04:27.701Z,99109.22
2023-05-19T10:06:54.828Z,99100.09
2023-05-19T10:09:28.108Z,99106.78
2023-05-19T10:11:58.593Z,99090.88
2023-05-19T10:14:26.160Z,99098.78
2023-05-19T10:16:53.743Z,99094.50
2023-05-19T10:19:24.289Z,99094.59
2023-05-19T10:21:51.045Z,99079.25
2023-05-19T10:24:17.720Z,99088.94
2023-05-19T10:26:46.068Z,99083.59
2023-05-19T10:29:12.934Z,99075.22
2023-05-19T10:31:40.304Z,99070.69
2023-05-19T10:34:34.742Z,99070.06
2023-05-19T10:37:10.329Z,99067.84
2023-05-19T10:39:36.847Z,99076.50
2023-05-19T10:42:12.792Z,99070.38
2023-05-19T10:44:51.391Z,99069.38
2023-05-19T10:47:24.166Z,99072.47
2023-05-19T10:49:53.783Z,99066.06
2023-05-19T10:52:21.829Z,99057.00
2023-05-19T10:54:48.540Z,99064.38
2023-05-19T10:57:16.641Z,99064.03
2023-05-19T10:59:44.689Z,99070.81
2023-05-19T11:02:11.577Z,99059.59
2023-05-19T11:04:51.849Z,99050.97
2023-05-19T11:07:20.097Z,99058.97
2023-05-19T11:09:52.869Z,99076.31
2023-05-19T11:12:24.775Z,99063.88
2023-05-19T11:14:55.007Z,99060.53
2023-05-19T11:17:22.398Z,99061.00
2023-05-19T11:19:56.313Z,99053.66
2023-05-19T11:22:26.820Z,99067.00
2023-05-19T11:24:56.584Z,99069.09
2023-05-19T11:27:33.309Z,99058.63
2023-05-19T11:30:06.581Z,99055.38
2023-05-19T11:32:33.885Z,99052.88
2023-05-19T11:35:01.131Z,99044.19
2023-05-19T11:37:29.060Z,99054.81
2023-05-19T11:39:55.744Z,99046.41
2023-05-19T11:42:22.888Z,99051.34
2023-05-19T11:44:49.429Z,99036.81
2023-05-19T11:47:42.516Z,99049.84
2023-05-19T11:50:06.273Z,99047.78
2023-05-19T11:52:32.818Z,99033.47
2023-05-19T11:55:02.351Z,99033.19
2023-05-19T11:57:28.855Z,99032.47
2023-05-19T11:59:56.775Z,99026.84
2023-05-19T12:02:27.855Z,99034.78
2023-05-19T12:04:54.707Z,99028.66
2023-05-19T12:07:23.505Z,99030.72
2023-05-19T12:09:50.912Z,99040.38
2023-05-19T12:12:18.754Z,99027.94
2023-05-19T12:14:50.350Z,99023.47
2023-05-19T12:17:18.106Z,99028.59
2023-05-19T12:19:44.761Z,99034.69
2023-05-19T12:22:11.636Z,99027.66
2023-05-19T12:24:38.340Z,99024.69
2023-05-19T12:27:17.423Z,99029.31
2023-05-19T12:29:44.011Z,99026.84
2023-05-19T12:32:10.578Z,99010.94
2023-05-19T12:34:38.199Z,99012.00
2023-05-19T12:37:05.327Z,99014.66
2023-05-19T12:39:32.436Z,99023.56
2023-05-19T12:42:11.409Z,99008.56
2023-05-19T12:44:39.359Z,99015.50
2023-05-19T12:47:07.105Z,99021.72
2023-05-19T12:49:34.130Z,99010.78
2023-05-19T12:52:07.209Z,99011.19
2023-05-19T12:54:37.164Z,99011.09
2023-05-19T12:57:05.661Z,99007.72
2023-05-19T12:59:54.882Z,99005.78
2023-05-19T13:02:21.276Z,99003.81
2023-05-19T13:04:48.422Z,98998.97
2023-05-19T13:07:15.019Z,99004.66
2023-05-19T13:09:42.198Z,99015.13
2023-05-19T13:12:08.831Z,99004.22
2023-05-19T13:14:35.389Z,99007.78
2023-05-19T13:17:02.058Z,99008.09
2023-05-19T13:19:29.096Z,99011.88
2023-05-19T13:21:55.634Z,99001.75
2023-05-19T13:24:22.300Z,99022.28
2023-05-19T13:26:48.897Z,99008.66
2023-05-19T13:29:15.422Z,99019.16
2023-05-19T13:31:42.095Z,99011.41
2023-05-19T13:34:08.711Z,99006.25
2023-05-19T13:36:36.447Z,98997.75
2023-05-19T13:39:03.500Z,98998.47
2023-05-19T13:41:30.011Z,99002.25
2023-05-19T13:43:58.430Z,98992.09
2023-05-19T13:46:36.623Z,98997.22
2023-05-19T13:49:10.654Z,99011.84
2023-05-19T13:51:37.575Z,99001.34
2023-05-19T13:54:05.062Z,98990.50
2023-05-19T13:56:31.802Z,98985.97
2023-05-19T13:58:58.355Z,98993.59
2023-05-19T14:01:24.973Z,98988.06
2023-05-19T14:03:52.436Z,98977.22
2023-05-19T14:06:19.602Z,98990.88
2023-05-19T14:08:46.114Z,98971.78
2023-05-19T14:11:39.241Z,98975.13
2023-05-19T14:14:05.854Z,98976.41
2023-05-19T14:16:32.758Z,98963.69
2023-05-19T14:18:59.417Z,98970.53
2023-05-19T14:21:25.942Z,98970.34
2023-05-19T14:23:52.494Z,98964.25
2023-05-19T14:26:19.706Z,98965.94
2023-05-19T14:28:46.216Z,98970.75
2023-05-19T14:31:13.106Z,98984.03
2023-05-19T14:33:40.693Z,98973.72
2023-05-19T14:36:10.392Z,98980.06
2023-05-19T14:38:36.947Z,98984.47
2023-05-19T14:41:03.534Z,98981.81
2023-05-19T14:43:30.076Z,98977.56
2023-05-19T14:45:58.932Z,98977.25
2023-05-19T14:48:25.440Z,98974.81
2023-05-19T14:50:52.596Z,98978.03
2023-05-19T14:53:19.133Z,98976.81
2023-05-19T14:55:47.608Z,98973.38
2023-05-19T14:58:27.611Z,98972.16
2023-05-19T15:00:57.714Z,98978.56
2023-05-19T15:03:24.899Z,98973.06
2023-05-19T15:05:51.553Z,98970.78
2023-05-19T15:08:18.090Z,98977.97
2023-05-19T15:10:48.583Z,98981.50
2023-05-19T15:13:15.096Z,98976.41
2023-05-19T15:15:41.619Z,98984.69
2023-05-19T15:18:08.213Z,98967.66
2023-05-19T15:20:34.959Z,98985.25
2023-05-19T15:23:01.742Z,98975.44
2023-05-19T15:25:28.265Z,98983.66
2023-05-19T15:27:55.044Z,98982.28
2023-05-19T15:30:21.599Z,98974.31
2023-05-19T15:32:48.148Z,98973.44
2023-05-19T15:35:15.043Z,98987.44
2023-05-19T15:37:41.866Z,98985.09
2023-05-19T15:40:08.928Z,98977.97
2023-05-19T15:42:35.724Z,98974.53
2023-05-19T15:45:02.265Z,98984.50
2023-05-19T15:47:28.806Z,98980.13
2023-05-19T15:49:55.406Z,98975.41
2023-05-19T15:52:21.965Z,98983.28
2023-05-19T15:54:48.895Z,98975.53
2023-05-19T15:57:15.811Z,98971.50
2023-05-19T15:59:42.411Z,98962.69
2023-05-19T16:02:09.019Z,98973.63
2023-05-19T16:04:35.626Z,98956.03
2023-05-19T16:07:02.127Z,98961.78
2023-05-19T16:09:28.642Z,98958.22
2023-05-19T16:11:55.329Z,98970.13
2023-05-19T16:14:22.585Z,98959.91
2023-05-19T16:16:49.260Z,98963.47
2023-05-19T16:19:15.982Z,98962.34
2023-05-19T16:21:42.535Z,98951.19
2023-05-19T16:24:09.054Z,98957.53
2023-05-19T16:26:35.705Z,98963.53
2023-05-19T16:29:02.221Z,98962.97
2023-05-19T16:31:28.861Z,98960.94
2023-05-19T16:33:55.485Z,98949.38
2023-05-19T16:36:22.845Z,98943.19
2023-05-19T16:38:49.494Z,98944.00
2023-05-19T16:41:16.111Z,98949.63
2023-05-19T16:43:42.674Z,98946.91
2023-05-19T16:46:12.034Z,98956.19
2023-05-19T16:48:38.825Z,98953.84
2023-05-19T16:51:05.353Z,98960.59
2023-05-19T16:53:31.951Z,98959.34
2023-05-19T16:56:01.382Z,98961.63
2023-05-19T16:58:28.986Z,98960.38
2023-05-19T17:00:57.828Z,98959.06
2023-05-19T17:03:24.737Z,98958.44
2023-05-19T17:05:52.378Z,98964.50
2023-05-19T17:08:18.916Z,98960.97
2023-05-19T17:10:45.442Z,98949.66
2023-05-19T17:13:11.963Z,98950.56
2023-05-19T17:15:38.989Z,98949.41
2023-05-19T17:18:06.703Z,98945.03
2023-05-19T17:20:33.471Z,98947.31
2023-05-19T17:23:00.139Z,98950.19
2023-05-19T17:25:26.653Z,98945.63
2023-05-19T17:27:53.208Z,98948.78
2023-05-19T17:30:19.752Z,98945.66
2023-05-19T17:32:46.619Z,98944.03
2023-05-19T17:35:13.469Z,98951.69
2023-05-19T17:37:39.995Z,98950.38
2023-05-19T17:40:07.123Z,98952.03
2023-05-19T17:42:33.662Z,98957.47
2023-05-19T17:45:00.635Z,98962.19
2023-05-19T17:47:27.274Z,98960.47
2023-05-19T17:49:54.122Z,98960.41
2023-05-19T17:52:21.171Z,98957.16
2023-05-19T17:54:47.880Z,98952.59
2023-05-19T17:57:15.738Z,98945.81
2023-05-19T17:59:42.413Z,98954.78
2023-05-19T18:02:09.847Z,98952.28
2023-05-19T18:04:36.691Z,98944.03
2023-05-19T18:07:05.230Z,98950.81
2023-05-19T18:09:31.795Z,98946.41
2023-05-19T18:12:01.960Z,98942.00
2023-05-19T18:14:28.507Z,98943.16
2023-05-19T18:16:55.023Z,98941.81
2023-05-19T18:19:21.672Z,98939.31
2023-05-19T18:21:48.275Z,98940.03
2023-05-19T18:24:14.784Z,98931.19
2023-05-19T18:26:42.088Z,98939.22
2023-05-19T18:29:12.045Z,98951.50
2023-05-19T18:31:38.704Z,98941.81
2023-05-19T18:34:05.347Z,98948.06
2023-05-19T18:36:32.130Z,98951.97
2023-05-19T18:38:59.161Z,98952.00
2023-05-19T18:41:25.702Z,98952.63
2023-05-19T18:43:52.239Z,98958.19
2023-05-19T18:46:18.859Z,98961.25
2023-05-19T18:48:45.531Z,98962.97
2023-05-19T18:51:14.233Z,98956.75
2023-05-19T18:53:40.816Z,98948.09
2023-05-19T18:56:07.601Z,98952.19
2023-05-19T18:58:34.156Z,98955.59
2023-05-19T19:01:00.720Z,98951.47
2023-05-19T19:03:28.578Z,98953.16
2023-05-19T19:05:57.062Z,98950.84
2023-05-19T19:08:23.644Z,98948.78
2023-05-19T19:10:51.508Z,98950.66
2023-05-19T19:13:18.257Z,98953.00
2023-05-19T19:15:45.022Z,98956.63
2023-05-19T19:18:11.930Z,98965.00
2023-05-19T19:20:38.508Z,98960.66
2023-05-19T19:23:06.560Z,98966.13
2023-05-19T19:25:33.461Z,98967.28
2023-05-19T19:28:00.002Z,98967.53
2023-05-19T19:30:26.805Z,98975.31
2023-05-19T19:32:54.739Z,98975.09
2023-05-19T19:35:21.288Z,98976.25
2023-05-19T19:37:47.913Z,98978.03
2023-05-19T19:40:14.438Z,98980.69
2023-05-19T19:42:41.002Z,98987.94
2023-05-19T19:45:07.929Z,98994.47
2023-05-19T19:47:34.496Z,99000.31
2023-05-19T19:50:02.570Z,98992.06
2023-05-19T19:52:29.356Z,99000.00
2023-05-19T19:54:55.898Z,98997.66
2023-05-19T19:57:22.432Z,98996.38
2023-05-19T19:59:56.570Z,98991.75
2023-05-19T20:02:23.119Z,98998.84
2023-05-19T20:04:49.663Z,98993.84
2023-05-19T20:07:19.564Z,98998.13
2023-05-19T20:09:46.889Z,98992.47
2023-05-19T20:12:13.425Z,98993.84
2023-05-19T20:14:39.929Z,98999.06
2023-05-19T20:17:06.541Z,98995.00
2023-05-19T20:19:33.084Z,98991.41
2023-05-19T20:21:59.654Z,98992.47
2023-05-19T20:24:26.163Z,98991.09
2023-05-19T20:26:52.674Z,98998.84
2023-05-19T20:29:19.217Z,99003.72
2023-05-19T20:31:46.589Z,98996.06
2023-05-19T20:34:13.126Z,99000.59
2023-05-19T20:36:39.677Z,99000.13
2023-05-19T20:39:07.023Z,98997.00
2023-05-19T20:41:33.533Z,99000.69
2023-05-19T20:44:00.186Z,98991.31
2023-05-19T20:46:26.821Z,98999.06
2023-05-19T20:48:53.470Z,98993.28
2023-05-19T20:51:21.664Z,98997.44
2023-05-19T20:53:48.236Z,99002.53
2023-05-19T20:56:14.797Z,99000.34
2023-05-19T20:58:41.420Z,98996.16
2023-05-19T21:01:08.008Z,98995.59
2023-05-19T21:03:34.902Z,98996.75
2023-05-19T21:06:01.424Z,99004.75
2023-05-19T21:08:27.956Z,98998.97
2023-05-19T21:10:54.514Z,99005.22
2023-05-19T21:13:21.152Z,99001.50
2023-05-19T21:15:47.716Z,99002.31
2023-05-19T21:18:14.309Z,98994.91
2023-05-19T21:20:40.882Z,98991.31
2023-05-19T21:23:07.409Z,99003.59
2023-05-19T21:25:33.965Z,98995.59
2023-05-19T21:28:00.544Z,99003.91
2023-05-19T21:30:27.114Z,98993.97
2023-05-19T21:32:53.788Z,99008.19
2023-05-19T21:35:20.349Z,99006.88
2023-05-19T21:37:46.859Z,99005.59
2023-05-19T21:40:13.455Z,99010.16
2023-05-19T21:42:40.001Z,99014.56
2023-05-19T21:45:07.266Z,99015.38
2023-05-19T21:47:33.766Z,99014.41
2023-05-19T21:50:00.577Z,99007.69
2023-05-19T21:52:27.119Z,99009.78
2023-05-19T21:54:53.664Z,99016.84
2023-05-19T21:57:20.285Z,99013.41
2023-05-19T21:59:46.867Z,99015.28
2023-05-19T22:02:13.514Z,99015.50
2023-05-19T22:04:41.750Z,99015.91
2023-05-19T22:07:08.278Z,99017.81
2023-05-19T22:09:34.815Z,99009.94
2023-05-19T22:12:01.358Z,99013.13
2023-05-19T22:14:27.890Z,99009.72
2023-05-19T22:16:54.526Z,99009.44
2023-05-19T22:19:21.387Z,99019.03
2023-05-19T22:21:48.345Z,99014.25
2023-05-19T22:24:16.069Z,99004.56
2023-05-19T22:26:42.894Z,99002.72
2023-05-19T22:29:14.898Z,98999.19
2023-05-19T22:31:41.460Z,99006.38
2023-05-19T22:34:08.095Z,98999.66
2023-05-19T22:36:34.649Z,99006.53
2023-05-19T22:39:01.175Z,99005.03
2023-05-19T22:41:27.715Z,99007.75
2023-05-19T22:43:54.236Z,99017.47
2023-05-19T22:46:21.319Z,99012.69
2023-05-19T22:48:47.851Z,99014.91
2023-05-19T22:51:14.370Z,99006.63
2023-05-19T22:53:42.509Z,99017.06
2023-05-19T22:56:09.025Z,99014.63
2023-05-19T22:58:35.530Z,99009.34
2023-05-19T23:01:02.071Z,99012.63
2023-05-19T23:03:28.642Z,98997.91
2023-05-19T23:05:55.319Z,99002.56
2023-05-19T23:08:21.845Z,99008.59
2023-05-19T23:10:48.888Z,99004.91
2023-05-19T23:13:15.490Z,99006.94
2023-05-19T23:15:41.989Z,99005.53
2023-05-19T23:18:08.686Z,99005.78
2023-05-19T23:20:35.525Z,99008.09
2023-05-19T23:23:02.066Z,99001.06
2023-05-19T23:25:28.621Z,99018.13
2023-05-19T23:27:55.216Z,99006.13
2023-05-19T23:30:21.717Z,99012.44
2023-05-19T23:32:48.263Z,99005.38
2023-05-19T23:35:16.379Z,99007.69
2023-05-19T23:37:42.915Z,99005.78
2023-05-19T23:40:09.626Z,99002.47
2023-05-19T23:42:36.684Z,99002.00
2023-05-19T23:45:03.807Z,99003.47
2023-05-19T23:47:30.363Z,99001.44
2023-05-19T23:49:56.891Z,99003.38
2023-05-19T23:52:23.428Z,99005.84
2023-05-19T23:54:49.980Z,99003.34
2023-05-19T23:57:16.489Z,98997.47
2023-05-19T23:59:43.153Z,98995.63
